sensor_id;sensor_type;location;lat;lon;timestamp;P1;durP1;ratioP1;P2;durP2;ratioP2
54959;SDS011;40860;51.710;8.736;2023-06-22T00:02:26;24.95;;;22.55;;
54959;SDS011;40860;51.710;8.736;2023-06-22T00:06:30;26.45;;;23.83;;
54959;SDS011;40860;51.710;8.736;2023-06-22T00:10:33;23.25;;;21.00;;
54959;SDS011;40860;51.710;8.736;2023-06-22T00:14:36;24.98;;;21.70;;
54959;SDS011;40860;51.710;8.736;2023-06-22T00:18:39;24.00;;;21.73;;
54959;SDS011;40860;51.710;8.736;2023-06-22T00:22:49;25.75;;;23.23;;
54959;SDS011;40860;51.710;8.736;2023-06-22T00:26:52;22.52;;;20.45;;
54959;SDS011;40860;51.710;8.736;2023-06-22T00:30:55;24.73;;;22.17;;
54959;SDS011;40860;51.710;8.736;2023-06-22T00:34:59;22.30;;;19.92;;
54959;SDS011;40860;51.710;8.736;2023-06-22T00:39:05;23.70;;;21.30;;
54959;SDS011;40860;51.710;8.736;2023-06-22T00:43:08;22.83;;;20.38;;
54959;SDS011;40860;51.710;8.736;2023-06-22T00:47:11;22.40;;;20.13;;
54959;SDS011;40860;51.710;8.736;2023-06-22T00:51:16;25.30;;;22.70;;
54959;SDS011;40860;51.710;8.736;2023-06-22T00:55:23;23.27;;;21.00;;
54959;SDS011;40860;51.710;8.736;2023-06-22T00:59:27;21.95;;;19.80;;
54959;SDS011;40860;51.710;8.736;2023-06-22T01:03:30;21.45;;;19.13;;
54959;SDS011;40860;51.710;8.736;2023-06-22T01:07:35;21.23;;;19.00;;
54959;SDS011;40860;51.710;8.736;2023-06-22T01:11:50;19.30;;;17.30;;
54959;SDS011;40860;51.710;8.736;2023-06-22T01:16:00;19.95;;;18.02;;
54959;SDS011;40860;51.710;8.736;2023-06-22T01:20:06;21.98;;;16.55;;
54959;SDS011;40860;51.710;8.736;2023-06-22T01:24:15;17.52;;;15.82;;
54959;SDS011;40860;51.710;8.736;2023-06-22T01:32:47;20.08;;;16.42;;
54959;SDS011;40860;51.710;8.736;2023-06-22T01:36:51;16.65;;;14.90;;
54959;SDS011;40860;51.710;8.736;2023-06-22T01:40:54;17.55;;;15.65;;
54959;SDS011;40860;51.710;8.736;2023-06-22T01:44:59;20.02;;;17.73;;
54959;SDS011;40860;51.710;8.736;2023-06-22T01:49:04;16.95;;;15.38;;
54959;SDS011;40860;51.710;8.736;2023-06-22T01:53:08;18.20;;;16.30;;
54959;SDS011;40860;51.710;8.736;2023-06-22T01:57:10;19.02;;;17.08;;
54959;SDS011;40860;51.710;8.736;2023-06-22T02:01:15;19.40;;;17.45;;
54959;SDS011;40860;51.710;8.736;2023-06-22T02:05:26;19.40;;;17.23;;
54959;SDS011;40860;51.710;8.736;2023-06-22T02:09:34;19.58;;;17.45;;
54959;SDS011;40860;51.710;8.736;2023-06-22T02:13:38;21.70;;;18.90;;
54959;SDS011;40860;51.710;8.736;2023-06-22T02:17:45;22.38;;;19.85;;
54959;SDS011;40860;51.710;8.736;2023-06-22T02:21:49;19.45;;;17.48;;
54959;SDS011;40860;51.710;8.736;2023-06-22T02:25:54;19.95;;;17.88;;
54959;SDS011;40860;51.710;8.736;2023-06-22T02:29:58;20.45;;;18.40;;
54959;SDS011;40860;51.710;8.736;2023-06-22T02:34:02;20.42;;;18.33;;
54959;SDS011;40860;51.710;8.736;2023-06-22T02:38:05;23.08;;;19.10;;
54959;SDS011;40860;51.710;8.736;2023-06-22T02:42:09;23.20;;;21.08;;
54959;SDS011;40860;51.710;8.736;2023-06-22T02:46:12;23.35;;;20.92;;
54959;SDS011;40860;51.710;8.736;2023-06-22T02:50:17;21.98;;;19.70;;
54959;SDS011;40860;51.710;8.736;2023-06-22T02:54:20;23.13;;;20.83;;
54959;SDS011;40860;51.710;8.736;2023-06-22T02:58:27;25.52;;;20.92;;
54959;SDS011;40860;51.710;8.736;2023-06-22T03:02:30;22.67;;;20.05;;
54959;SDS011;40860;51.710;8.736;2023-06-22T03:06:34;24.45;;;22.02;;
54959;SDS011;40860;51.710;8.736;2023-06-22T03:10:39;23.08;;;20.77;;
54959;SDS011;40860;51.710;8.736;2023-06-22T03:14:42;22.83;;;20.63;;
54959;SDS011;40860;51.710;8.736;2023-06-22T03:18:44;22.45;;;18.90;;
54959;SDS011;40860;51.710;8.736;2023-06-22T03:22:49;18.95;;;16.98;;
54959;SDS011;40860;51.710;8.736;2023-06-22T03:26:51;20.67;;;17.38;;
54959;SDS011;40860;51.710;8.736;2023-06-22T03:30:56;20.38;;;17.42;;
54959;SDS011;40860;51.710;8.736;2023-06-22T03:35:00;19.83;;;17.90;;
54959;SDS011;40860;51.710;8.736;2023-06-22T03:39:05;19.13;;;17.33;;
54959;SDS011;40860;51.710;8.736;2023-06-22T03:43:08;18.90;;;16.75;;
54959;SDS011;40860;51.710;8.736;2023-06-22T03:47:11;17.05;;;15.18;;
54959;SDS011;40860;51.710;8.736;2023-06-22T03:51:14;17.48;;;15.77;;
54959;SDS011;40860;51.710;8.736;2023-06-22T03:55:19;15.80;;;14.27;;
54959;SDS011;40860;51.710;8.736;2023-06-22T03:59:22;16.90;;;15.30;;
54959;SDS011;40860;51.710;8.736;2023-06-22T04:03:25;16.27;;;14.68;;
54959;SDS011;40860;51.710;8.736;2023-06-22T04:07:28;15.65;;;14.13;;
54959;SDS011;40860;51.710;8.736;2023-06-22T04:11:32;15.43;;;14.02;;
54959;SDS011;40860;51.710;8.736;2023-06-22T04:15:35;16.30;;;14.63;;
54959;SDS011;40860;51.710;8.736;2023-06-22T04:19:38;16.63;;;14.90;;
54959;SDS011;40860;51.710;8.736;2023-06-22T04:23:40;15.77;;;14.13;;
54959;SDS011;40860;51.710;8.736;2023-06-22T04:27:45;15.48;;;13.95;;
54959;SDS011;40860;51.710;8.736;2023-06-22T04:31:48;15.10;;;13.60;;
54959;SDS011;40860;51.710;8.736;2023-06-22T04:35:52;17.60;;;15.80;;
54959;SDS011;40860;51.710;8.736;2023-06-22T04:39:54;16.27;;;14.80;;
54959;SDS011;40860;51.710;8.736;2023-06-22T04:43:59;15.43;;;13.77;;
54959;SDS011;40860;51.710;8.736;2023-06-22T04:48:01;14.75;;;13.25;;
54959;SDS011;40860;51.710;8.736;2023-06-22T04:52:05;16.23;;;14.55;;
54959;SDS011;40860;51.710;8.736;2023-06-22T04:56:09;17.58;;;15.77;;
54959;SDS011;40860;51.710;8.736;2023-06-22T05:00:15;16.50;;;14.27;;
54959;SDS011;40860;51.710;8.736;2023-06-22T05:04:19;17.05;;;15.07;;
54959;SDS011;40860;51.710;8.736;2023-06-22T05:08:22;16.50;;;14.65;;
54959;SDS011;40860;51.710;8.736;2023-06-22T05:12:28;16.08;;;14.38;;
54959;SDS011;40860;51.710;8.736;2023-06-22T05:16:32;16.17;;;14.70;;
54959;SDS011;40860;51.710;8.736;2023-06-22T05:20:35;15.80;;;14.25;;
54959;SDS011;40860;51.710;8.736;2023-06-22T05:24:38;14.25;;;12.88;;
54959;SDS011;40860;51.710;8.736;2023-06-22T05:28:41;15.00;;;13.50;;
54959;SDS011;40860;51.710;8.736;2023-06-22T05:32:48;15.57;;;14.23;;
54959;SDS011;40860;51.710;8.736;2023-06-22T05:36:52;16.00;;;14.55;;
54959;SDS011;40860;51.710;8.736;2023-06-22T05:40:55;17.42;;;15.35;;
54959;SDS011;40860;51.710;8.736;2023-06-22T05:44:57;16.77;;;15.05;;
54959;SDS011;40860;51.710;8.736;2023-06-22T05:49:02;16.60;;;15.10;;
54959;SDS011;40860;51.710;8.736;2023-06-22T05:53:05;15.65;;;13.98;;
54959;SDS011;40860;51.710;8.736;2023-06-22T05:57:08;15.88;;;14.48;;
54959;SDS011;40860;51.710;8.736;2023-06-22T06:01:11;15.07;;;13.68;;
54959;SDS011;40860;51.710;8.736;2023-06-22T06:05:15;14.90;;;13.55;;
54959;SDS011;40860;51.710;8.736;2023-06-22T06:09:19;15.35;;;13.93;;
54959;SDS011;40860;51.710;8.736;2023-06-22T06:13:22;15.05;;;13.68;;
54959;SDS011;40860;51.710;8.736;2023-06-22T06:17:25;15.60;;;14.15;;
54959;SDS011;40860;51.710;8.736;2023-06-22T06:21:29;14.80;;;13.50;;
54959;SDS011;40860;51.710;8.736;2023-06-22T06:25:32;15.50;;;13.95;;
54959;SDS011;40860;51.710;8.736;2023-06-22T06:29:34;16.00;;;14.40;;
54959;SDS011;40860;51.710;8.736;2023-06-22T06:33:37;15.13;;;13.55;;
54959;SDS011;40860;51.710;8.736;2023-06-22T06:37:42;15.30;;;13.80;;
54959;SDS011;40860;51.710;8.736;2023-06-22T06:41:45;14.95;;;13.40;;
54959;SDS011;40860;51.710;8.736;2023-06-22T06:45:49;15.77;;;14.48;;
54959;SDS011;40860;51.710;8.736;2023-06-22T06:49:53;16.75;;;15.15;;
54959;SDS011;40860;51.710;8.736;2023-06-22T06:53:57;16.40;;;14.88;;
54959;SDS011;40860;51.710;8.736;2023-06-22T06:58:00;16.92;;;15.38;;
54959;SDS011;40860;51.710;8.736;2023-06-22T07:02:05;16.85;;;15.15;;
54959;SDS011;40860;51.710;8.736;2023-06-22T07:06:08;17.15;;;15.38;;
54959;SDS011;40860;51.710;8.736;2023-06-22T07:10:13;17.58;;;15.88;;
54959;SDS011;40860;51.710;8.736;2023-06-22T07:14:16;13.55;;;12.40;;
54959;SDS011;40860;51.710;8.736;2023-06-22T07:18:19;12.55;;;11.32;;
54959;SDS011;40860;51.710;8.736;2023-06-22T07:22:22;12.80;;;11.68;;
54959;SDS011;40860;51.710;8.736;2023-06-22T07:26:26;13.30;;;11.93;;
54959;SDS011;40860;51.710;8.736;2023-06-22T07:30:29;12.80;;;11.70;;
54959;SDS011;40860;51.710;8.736;2023-06-22T07:34:34;12.80;;;11.60;;
54959;SDS011;40860;51.710;8.736;2023-06-22T07:38:37;13.45;;;12.25;;
54959;SDS011;40860;51.710;8.736;2023-06-22T07:42:41;14.63;;;13.18;;
54959;SDS011;40860;51.710;8.736;2023-06-22T07:46:44;14.85;;;13.40;;
54959;SDS011;40860;51.710;8.736;2023-06-22T07:50:47;14.98;;;13.68;;
54959;SDS011;40860;51.710;8.736;2023-06-22T07:54:50;14.70;;;13.20;;
54959;SDS011;40860;51.710;8.736;2023-06-22T07:58:54;15.18;;;13.77;;
54959;SDS011;40860;51.710;8.736;2023-06-22T08:02:59;13.98;;;12.52;;
54959;SDS011;40860;51.710;8.736;2023-06-22T08:07:05;11.70;;;10.60;;
54959;SDS011;40860;51.710;8.736;2023-06-22T08:11:08;11.68;;;10.57;;
54959;SDS011;40860;51.710;8.736;2023-06-22T08:15:12;11.30;;;10.23;;
54959;SDS011;40860;51.710;8.736;2023-06-22T08:19:15;10.57;;;9.57;;
54959;SDS011;40860;51.710;8.736;2023-06-22T08:23:18;10.27;;;9.38;;
54959;SDS011;40860;51.710;8.736;2023-06-22T08:27:22;9.93;;;8.93;;
54959;SDS011;40860;51.710;8.736;2023-06-22T08:31:26;9.48;;;8.68;;
54959;SDS011;40860;51.710;8.736;2023-06-22T08:35:29;9.55;;;8.65;;
54959;SDS011;40860;51.710;8.736;2023-06-22T08:39:33;9.40;;;8.45;;
54959;SDS011;40860;51.710;8.736;2023-06-22T08:43:36;9.82;;;8.85;;
54959;SDS011;40860;51.710;8.736;2023-06-22T08:47:40;9.70;;;8.80;;
54959;SDS011;40860;51.710;8.736;2023-06-22T08:51:44;9.68;;;8.80;;
54959;SDS011;40860;51.710;8.736;2023-06-22T08:55:50;10.30;;;9.20;;
54959;SDS011;40860;51.710;8.736;2023-06-22T08:59:53;10.68;;;9.77;;
54959;SDS011;40860;51.710;8.736;2023-06-22T09:04:00;10.90;;;9.93;;
54959;SDS011;40860;51.710;8.736;2023-06-22T09:08:05;11.98;;;10.43;;
54959;SDS011;40860;51.710;8.736;2023-06-22T09:12:08;11.07;;;9.98;;
54959;SDS011;40860;51.710;8.736;2023-06-22T09:16:12;10.43;;;9.40;;
54959;SDS011;40860;51.710;8.736;2023-06-22T09:20:16;9.63;;;8.80;;
54959;SDS011;40860;51.710;8.736;2023-06-22T09:24:19;8.50;;;7.80;;
54959;SDS011;40860;51.710;8.736;2023-06-22T09:28:21;9.05;;;8.20;;
54959;SDS011;40860;51.710;8.736;2023-06-22T09:32:24;8.48;;;7.78;;
54959;SDS011;40860;51.710;8.736;2023-06-22T09:36:28;9.73;;;8.93;;
54959;SDS011;40860;51.710;8.736;2023-06-22T09:40:31;8.55;;;7.65;;
54959;SDS011;40860;51.710;8.736;2023-06-22T09:44:36;8.68;;;7.97;;
54959;SDS011;40860;51.710;8.736;2023-06-22T09:48:39;8.50;;;7.80;;
54959;SDS011;40860;51.710;8.736;2023-06-22T09:52:43;8.07;;;7.47;;
54959;SDS011;40860;51.710;8.736;2023-06-22T09:56:51;8.90;;;8.10;;
54959;SDS011;40860;51.710;8.736;2023-06-22T10:00:54;9.32;;;8.45;;
54959;SDS011;40860;51.710;8.736;2023-06-22T10:04:57;9.00;;;8.20;;
54959;SDS011;40860;51.710;8.736;2023-06-22T10:09:02;8.68;;;7.93;;
54959;SDS011;40860;51.710;8.736;2023-06-22T10:13:07;9.10;;;8.20;;
54959;SDS011;40860;51.710;8.736;2023-06-22T10:17:11;9.30;;;8.35;;
54959;SDS011;40860;51.710;8.736;2023-06-22T10:21:14;9.20;;;8.50;;
54959;SDS011;40860;51.710;8.736;2023-06-22T10:25:18;8.90;;;8.00;;
54959;SDS011;40860;51.710;8.736;2023-06-22T10:29:21;8.93;;;8.13;;
54959;SDS011;40860;51.710;8.736;2023-06-22T10:33:24;9.48;;;8.60;;
54959;SDS011;40860;51.710;8.736;2023-06-22T10:37:27;8.70;;;8.00;;
54959;SDS011;40860;51.710;8.736;2023-06-22T10:41:31;9.10;;;8.30;;
54959;SDS011;40860;51.710;8.736;2023-06-22T10:45:34;9.93;;;9.07;;
54959;SDS011;40860;51.710;8.736;2023-06-22T10:49:37;9.77;;;8.88;;
54959;SDS011;40860;51.710;8.736;2023-06-22T10:53:40;9.82;;;8.82;;
54959;SDS011;40860;51.710;8.736;2023-06-22T10:57:45;9.93;;;9.05;;
54959;SDS011;40860;51.710;8.736;2023-06-22T11:01:48;9.68;;;8.98;;
54959;SDS011;40860;51.710;8.736;2023-06-22T11:05:51;9.82;;;8.93;;
54959;SDS011;40860;51.710;8.736;2023-06-22T11:09:54;10.10;;;9.20;;
54959;SDS011;40860;51.710;8.736;2023-06-22T11:13:58;10.57;;;9.57;;
54959;SDS011;40860;51.710;8.736;2023-06-22T11:18:02;9.35;;;8.50;;
54959;SDS011;40860;51.710;8.736;2023-06-22T11:22:06;10.88;;;9.32;;
54959;SDS011;40860;51.710;8.736;2023-06-22T11:26:09;9.80;;;8.90;;
54959;SDS011;40860;51.710;8.736;2023-06-22T11:30:13;10.23;;;9.18;;
54959;SDS011;40860;51.710;8.736;2023-06-22T11:34:16;9.32;;;8.52;;
54959;SDS011;40860;51.710;8.736;2023-06-22T11:38:20;9.77;;;8.98;;
54959;SDS011;40860;51.710;8.736;2023-06-22T11:42:23;9.20;;;8.30;;
54959;SDS011;40860;51.710;8.736;2023-06-22T11:46:27;11.52;;;8.50;;
54959;SDS011;40860;51.710;8.736;2023-06-22T11:50:30;8.80;;;8.00;;
54959;SDS011;40860;51.710;8.736;2023-06-22T11:54:37;9.55;;;8.75;;
54959;SDS011;40860;51.710;8.736;2023-06-22T11:58:40;9.65;;;8.75;;
54959;SDS011;40860;51.710;8.736;2023-06-22T12:02:44;9.50;;;8.60;;
54959;SDS011;40860;51.710;8.736;2023-06-22T12:06:47;9.13;;;8.43;;
54959;SDS011;40860;51.710;8.736;2023-06-22T12:10:51;9.27;;;8.48;;
54959;SDS011;40860;51.710;8.736;2023-06-22T12:14:55;10.30;;;9.43;;
54959;SDS011;40860;51.710;8.736;2023-06-22T12:18:59;11.07;;;10.13;;
54959;SDS011;40860;51.710;8.736;2023-06-22T12:23:02;11.02;;;9.90;;
54959;SDS011;40860;51.710;8.736;2023-06-22T12:27:05;11.35;;;10.35;;
54959;SDS011;40860;51.710;8.736;2023-06-22T12:31:08;10.68;;;9.77;;
54959;SDS011;40860;51.710;8.736;2023-06-22T12:35:12;12.48;;;11.18;;
54959;SDS011;40860;51.710;8.736;2023-06-22T12:39:15;14.02;;;12.27;;
54959;SDS011;40860;51.710;8.736;2023-06-22T12:43:18;13.63;;;12.32;;
54959;SDS011;40860;51.710;8.736;2023-06-22T12:47:21;13.93;;;12.43;;
54959;SDS011;40860;51.710;8.736;2023-06-22T12:51:25;15.80;;;14.35;;
54959;SDS011;40860;51.710;8.736;2023-06-22T12:55:28;14.82;;;13.52;;
54959;SDS011;40860;51.710;8.736;2023-06-22T12:59:31;15.85;;;14.35;;
54959;SDS011;40860;51.710;8.736;2023-06-22T13:03:34;16.20;;;14.48;;
54959;SDS011;40860;51.710;8.736;2023-06-22T13:07:38;14.18;;;13.02;;
54959;SDS011;40860;51.710;8.736;2023-06-22T13:11:43;14.20;;;12.80;;
54959;SDS011;40860;51.710;8.736;2023-06-22T13:15:46;16.52;;;14.93;;
54959;SDS011;40860;51.710;8.736;2023-06-22T13:19:49;16.88;;;15.20;;
54959;SDS011;40860;51.710;8.736;2023-06-22T13:23:54;16.58;;;15.07;;
54959;SDS011;40860;51.710;8.736;2023-06-22T13:27:57;17.52;;;15.80;;
54959;SDS011;40860;51.710;8.736;2023-06-22T13:32:00;16.75;;;15.07;;
54959;SDS011;40860;51.710;8.736;2023-06-22T13:36:03;22.42;;;16.98;;
54959;SDS011;40860;51.710;8.736;2023-06-22T13:40:09;21.67;;;18.02;;
54959;SDS011;40860;51.710;8.736;2023-06-22T13:44:13;20.45;;;18.33;;
54959;SDS011;40860;51.710;8.736;2023-06-22T13:48:16;21.73;;;19.48;;
54959;SDS011;40860;51.710;8.736;2023-06-22T13:52:19;22.48;;;20.08;;
54959;SDS011;40860;51.710;8.736;2023-06-22T13:56:23;21.60;;;18.98;;
54959;SDS011;40860;51.710;8.736;2023-06-22T14:00:26;22.58;;;20.35;;
54959;SDS011;40860;51.710;8.736;2023-06-22T14:04:30;23.85;;;21.23;;
54959;SDS011;40860;51.710;8.736;2023-06-22T14:08:33;22.40;;;20.30;;
54959;SDS011;40860;51.710;8.736;2023-06-22T14:12:40;23.15;;;20.77;;
54959;SDS011;40860;51.710;8.736;2023-06-22T14:16:43;23.02;;;20.75;;
54959;SDS011;40860;51.710;8.736;2023-06-22T14:20:45;21.90;;;19.90;;
54959;SDS011;40860;51.710;8.736;2023-06-22T14:24:49;23.58;;;21.27;;
54959;SDS011;40860;51.710;8.736;2023-06-22T14:28:53;22.45;;;20.30;;
54959;SDS011;40860;51.710;8.736;2023-06-22T14:32:58;23.83;;;21.35;;
54959;SDS011;40860;51.710;8.736;2023-06-22T14:37:00;24.05;;;21.58;;
54959;SDS011;40860;51.710;8.736;2023-06-22T14:41:03;25.77;;;22.55;;
54959;SDS011;40860;51.710;8.736;2023-06-22T14:45:16;21.00;;;18.92;;
54959;SDS011;40860;51.710;8.736;2023-06-22T14:49:19;23.58;;;20.08;;
54959;SDS011;40860;51.710;8.736;2023-06-22T14:53:23;27.33;;;20.70;;
54959;SDS011;40860;51.710;8.736;2023-06-22T14:57:25;22.85;;;19.33;;
54959;SDS011;40860;51.710;8.736;2023-06-22T15:01:30;25.05;;;22.38;;
54959;SDS011;40860;51.710;8.736;2023-06-22T15:05:33;26.92;;;24.15;;
54959;SDS011;40860;51.710;8.736;2023-06-22T15:09:36;28.40;;;25.48;;
54959;SDS011;40860;51.710;8.736;2023-06-22T15:13:42;30.80;;;27.50;;
54959;SDS011;40860;51.710;8.736;2023-06-22T15:17:46;26.77;;;24.10;;
54959;SDS011;40860;51.710;8.736;2023-06-22T15:21:49;27.75;;;24.85;;
54959;SDS011;40860;51.710;8.736;2023-06-22T15:25:52;26.95;;;24.15;;
54959;SDS011;40860;51.710;8.736;2023-06-22T15:29:55;29.75;;;26.90;;
54959;SDS011;40860;51.710;8.736;2023-06-22T15:33:59;27.48;;;24.67;;
54959;SDS011;40860;51.710;8.736;2023-06-22T15:38:04;26.60;;;23.75;;
54959;SDS011;40860;51.710;8.736;2023-06-22T15:42:07;26.65;;;23.98;;
54959;SDS011;40860;51.710;8.736;2023-06-22T15:46:10;25.67;;;23.27;;
54959;SDS011;40860;51.710;8.736;2023-06-22T15:50:14;23.70;;;21.45;;
54959;SDS011;40860;51.710;8.736;2023-06-22T15:54:17;23.00;;;20.70;;
54959;SDS011;40860;51.710;8.736;2023-06-22T15:58:20;23.20;;;20.88;;
54959;SDS011;40860;51.710;8.736;2023-06-22T16:02:23;23.98;;;21.77;;
54959;SDS011;40860;51.710;8.736;2023-06-22T16:06:29;24.83;;;22.30;;
54959;SDS011;40860;51.710;8.736;2023-06-22T16:10:32;23.52;;;21.17;;
54959;SDS011;40860;51.710;8.736;2023-06-22T16:14:35;24.15;;;21.83;;
54959;SDS011;40860;51.710;8.736;2023-06-22T16:18:38;23.17;;;20.92;;
54959;SDS011;40860;51.710;8.736;2023-06-22T16:22:44;25.98;;;23.48;;
54959;SDS011;40860;51.710;8.736;2023-06-22T16:26:47;23.70;;;21.40;;
54959;SDS011;40860;51.710;8.736;2023-06-22T16:30:51;24.63;;;22.23;;
54959;SDS011;40860;51.710;8.736;2023-06-22T16:34:54;24.75;;;22.20;;
54959;SDS011;40860;51.710;8.736;2023-06-22T16:38:58;22.40;;;20.40;;
54959;SDS011;40860;51.710;8.736;2023-06-22T16:43:01;24.42;;;21.88;;
54959;SDS011;40860;51.710;8.736;2023-06-22T16:47:04;27.25;;;24.67;;
54959;SDS011;40860;51.710;8.736;2023-06-22T16:51:07;27.08;;;24.35;;
54959;SDS011;40860;51.710;8.736;2023-06-22T16:55:12;28.70;;;26.10;;
54959;SDS011;40860;51.710;8.736;2023-06-22T16:59:15;27.85;;;25.23;;
54959;SDS011;40860;51.710;8.736;2023-06-22T17:03:21;30.20;;;27.23;;
54959;SDS011;40860;51.710;8.736;2023-06-22T17:07:27;30.77;;;27.27;;
54959;SDS011;40860;51.710;8.736;2023-06-22T17:11:35;30.88;;;27.77;;
54959;SDS011;40860;51.710;8.736;2023-06-22T17:15:38;29.80;;;26.90;;
54959;SDS011;40860;51.710;8.736;2023-06-22T17:19:42;31.92;;;28.73;;
54959;SDS011;40860;51.710;8.736;2023-06-22T17:23:46;29.48;;;26.67;;
54959;SDS011;40860;51.710;8.736;2023-06-22T17:27:51;27.40;;;24.80;;
54959;SDS011;40860;51.710;8.736;2023-06-22T17:32:01;26.23;;;23.73;;
54959;SDS011;40860;51.710;8.736;2023-06-22T17:36:08;28.15;;;25.25;;
54959;SDS011;40860;51.710;8.736;2023-06-22T17:40:13;31.80;;;28.70;;
54959;SDS011;40860;51.710;8.736;2023-06-22T17:44:19;34.72;;;31.25;;
54959;SDS011;40860;51.710;8.736;2023-06-22T17:48:23;37.38;;;33.45;;
54959;SDS011;40860;51.710;8.736;2023-06-22T17:52:26;40.38;;;36.10;;
54959;SDS011;40860;51.710;8.736;2023-06-22T17:56:29;40.83;;;36.60;;
54959;SDS011;40860;51.710;8.736;2023-06-22T18:00:33;36.83;;;33.03;;
54959;SDS011;40860;51.710;8.736;2023-06-22T18:04:37;38.90;;;35.00;;
54959;SDS011;40860;51.710;8.736;2023-06-22T18:08:40;40.72;;;36.40;;
54959;SDS011;40860;51.710;8.736;2023-06-22T18:12:43;38.92;;;34.97;;
54959;SDS011;40860;51.710;8.736;2023-06-22T18:16:50;39.97;;;35.80;;
54959;SDS011;40860;51.710;8.736;2023-06-22T18:20:53;41.67;;;37.58;;
54959;SDS011;40860;51.710;8.736;2023-06-22T18:24:58;40.83;;;36.65;;
54959;SDS011;40860;51.710;8.736;2023-06-22T18:29:03;42.20;;;37.67;;
54959;SDS011;40860;51.710;8.736;2023-06-22T18:33:09;39.25;;;35.30;;
54959;SDS011;40860;51.710;8.736;2023-06-22T18:37:12;40.30;;;36.30;;
54959;SDS011;40860;51.710;8.736;2023-06-22T18:41:20;33.55;;;30.45;;
54959;SDS011;40860;51.710;8.736;2023-06-22T18:45:24;29.73;;;26.92;;
54959;SDS011;40860;51.710;8.736;2023-06-22T18:49:31;29.67;;;26.77;;
54959;SDS011;40860;51.710;8.736;2023-06-22T18:53:35;27.05;;;24.55;;
54959;SDS011;40860;51.710;8.736;2023-06-22T18:57:38;26.42;;;24.02;;
54959;SDS011;40860;51.710;8.736;2023-06-22T19:01:40;20.63;;;18.73;;
54959;SDS011;40860;51.710;8.736;2023-06-22T19:05:44;20.73;;;18.70;;
54959;SDS011;40860;51.710;8.736;2023-06-22T19:10:21;19.77;;;17.42;;
54959;SDS011;40860;51.710;8.736;2023-06-22T19:14:25;14.95;;;13.65;;
54959;SDS011;40860;51.710;8.736;2023-06-22T19:18:31;13.48;;;12.27;;
54959;SDS011;40860;51.710;8.736;2023-06-22T19:22:46;14.60;;;13.30;;
54959;SDS011;40860;51.710;8.736;2023-06-22T19:26:55;13.50;;;12.32;;
54959;SDS011;40860;51.710;8.736;2023-06-22T19:30:58;15.30;;;13.90;;
54959;SDS011;40860;51.710;8.736;2023-06-22T19:35:03;16.00;;;14.57;;
54959;SDS011;40860;51.710;8.736;2023-06-22T19:39:10;17.25;;;15.52;;
54959;SDS011;40860;51.710;8.736;2023-06-22T19:43:15;19.20;;;17.30;;
54959;SDS011;40860;51.710;8.736;2023-06-22T19:47:19;19.77;;;17.88;;
54959;SDS011;40860;51.710;8.736;2023-06-22T19:51:22;18.02;;;16.25;;
54959;SDS011;40860;51.710;8.736;2023-06-22T19:55:26;17.27;;;15.52;;
54959;SDS011;40860;51.710;8.736;2023-06-22T19:59:29;17.73;;;16.13;;
54959;SDS011;40860;51.710;8.736;2023-06-22T20:03:36;17.20;;;15.50;;
54959;SDS011;40860;51.710;8.736;2023-06-22T20:07:42;16.15;;;14.75;;
54959;SDS011;40860;51.710;8.736;2023-06-22T20:11:47;14.05;;;12.60;;
54959;SDS011;40860;51.710;8.736;2023-06-22T20:15:58;14.35;;;12.27;;
54959;SDS011;40860;51.710;8.736;2023-06-22T20:20:17;14.25;;;12.95;;
54959;SDS011;40860;51.710;8.736;2023-06-22T20:24:21;13.50;;;12.40;;
54959;SDS011;40860;51.710;8.736;2023-06-22T20:28:25;12.95;;;11.65;;
54959;SDS011;40860;51.710;8.736;2023-06-22T20:32:28;14.63;;;12.15;;
54959;SDS011;40860;51.710;8.736;2023-06-22T20:36:34;11.98;;;10.57;;
54959;SDS011;40860;51.710;8.736;2023-06-22T20:40:37;9.55;;;8.68;;
54959;SDS011;40860;51.710;8.736;2023-06-22T20:44:41;10.57;;;9.57;;
54959;SDS011;40860;51.710;8.736;2023-06-22T20:48:46;9.70;;;8.45;;
54959;SDS011;40860;51.710;8.736;2023-06-22T20:52:52;10.32;;;9.32;;
54959;SDS011;40860;51.710;8.736;2023-06-22T20:56:57;10.30;;;9.30;;
54959;SDS011;40860;51.710;8.736;2023-06-22T21:01:01;10.02;;;9.05;;
54959;SDS011;40860;51.710;8.736;2023-06-22T21:05:04;10.05;;;9.10;;
54959;SDS011;40860;51.710;8.736;2023-06-22T21:09:07;11.27;;;8.90;;
54959;SDS011;40860;51.710;8.736;2023-06-22T21:13:10;11.60;;;9.20;;
54959;SDS011;40860;51.710;8.736;2023-06-22T21:17:15;9.65;;;8.75;;
54959;SDS011;40860;51.710;8.736;2023-06-22T21:21:18;10.57;;;9.50;;
54959;SDS011;40860;51.710;8.736;2023-06-22T21:25:21;11.02;;;9.13;;
54959;SDS011;40860;51.710;8.736;2023-06-22T21:29:24;10.40;;;8.10;;
54959;SDS011;40860;51.710;8.736;2023-06-22T21:33:28;9.57;;;7.35;;
54959;SDS011;40860;51.710;8.736;2023-06-22T21:37:31;8.93;;;8.02;;
54959;SDS011;40860;51.710;8.736;2023-06-22T21:41:34;8.75;;;7.88;;
54959;SDS011;40860;51.710;8.736;2023-06-22T21:45:38;8.73;;;7.68;;
54959;SDS011;40860;51.710;8.736;2023-06-22T21:49:43;9.98;;;7.35;;
54959;SDS011;40860;51.710;8.736;2023-06-22T21:53:45;9.30;;;7.53;;
54959;SDS011;40860;51.710;8.736;2023-06-22T21:57:49;10.40;;;7.82;;
54959;SDS011;40860;51.710;8.736;2023-06-22T22:01:52;12.07;;;8.02;;
54959;SDS011;40860;51.710;8.736;2023-06-22T22:05:57;8.45;;;7.65;;
54959;SDS011;40860;51.710;8.736;2023-06-22T22:09:59;9.27;;;7.63;;
54959;SDS011;40860;51.710;8.736;2023-06-22T22:14:02;9.25;;;7.97;;
54959;SDS011;40860;51.710;8.736;2023-06-22T22:18:05;8.30;;;7.60;;
54959;SDS011;40860;51.710;8.736;2023-06-22T22:22:13;8.93;;;7.78;;
54959;SDS011;40860;51.710;8.736;2023-06-22T22:26:16;11.57;;;7.90;;
54959;SDS011;40860;51.710;8.736;2023-06-22T22:30:19;9.95;;;7.47;;
54959;SDS011;40860;51.710;8.736;2023-06-22T22:34:21;8.02;;;6.60;;
54959;SDS011;40860;51.710;8.736;2023-06-22T22:38:26;9.05;;;7.90;;
54959;SDS011;40860;51.710;8.736;2023-06-22T22:42:28;13.43;;;7.70;;
54959;SDS011;40860;51.710;8.736;2023-06-22T22:46:31;7.28;;;6.47;;
54959;SDS011;40860;51.710;8.736;2023-06-22T22:50:35;7.13;;;6.43;;
54959;SDS011;40860;51.710;8.736;2023-06-22T22:54:39;7.10;;;4.80;;
54959;SDS011;40860;51.710;8.736;2023-06-22T22:58:44;4.43;;;4.07;;
54959;SDS011;40860;51.710;8.736;2023-06-22T23:02:47;3.97;;;3.58;;
54959;SDS011;40860;51.710;8.736;2023-06-22T23:06:50;6.97;;;3.28;;
54959;SDS011;40860;51.710;8.736;2023-06-22T23:10:54;6.15;;;3.75;;
54959;SDS011;40860;51.710;8.736;2023-06-22T23:14:57;3.00;;;2.80;;
54959;SDS011;40860;51.710;8.736;2023-06-22T23:19:00;6.18;;;2.80;;
54959;SDS011;40860;51.710;8.736;2023-06-22T23:23:04;6.85;;;2.85;;
54959;SDS011;40860;51.710;8.736;2023-06-22T23:27:08;4.07;;;2.58;;
54959;SDS011;40860;51.710;8.736;2023-06-22T23:31:14;3.58;;;2.55;;
54959;SDS011;40860;51.710;8.736;2023-06-22T23:35:16;3.47;;;2.83;;
54959;SDS011;40860;51.710;8.736;2023-06-22T23:39:20;4.63;;;2.53;;
54959;SDS011;40860;51.710;8.736;2023-06-22T23:43:24;4.60;;;3.17;;
54959;SDS011;40860;51.710;8.736;2023-06-22T23:47:28;5.28;;;3.20;;
54959;SDS011;40860;51.710;8.736;2023-06-22T23:51:31;3.70;;;3.40;;
54959;SDS011;40860;51.710;8.736;2023-06-22T23:55:39;3.75;;;3.38;;
54959;SDS011;40860;51.710;8.736;2023-06-22T23:59:45;4.35;;;3.35;;
